sensor_id;sensor_type;location;lat;lon;timestamp;P1;durP1;ratioP1;P2;durP2;ratioP2
42384;SDS011;28042;43.986;22.860;2023-11-19T00:02:15;2.83;;;1.70;;
42384;SDS011;28042;43.986;22.860;2023-11-19T00:04:41;4.05;;;2.17;;
42384;SDS011;28042;43.986;22.860;2023-11-19T00:07:07;4.72;;;1.98;;
42384;SDS011;28042;43.986;22.860;2023-11-19T00:09:36;1.83;;;1.33;;
42384;SDS011;28042;43.986;22.860;2023-11-19T00:12:06;2.47;;;1.40;;
42384;SDS011;28042;43.986;22.860;2023-11-19T00:14:32;3.45;;;1.88;;
42384;SDS011;28042;43.986;22.860;2023-11-19T00:16:58;3.97;;;2.40;;
42384;SDS011;28042;43.986;22.860;2023-11-19T00:19:24;6.10;;;2.03;;
42384;SDS011;28042;43.986;22.860;2023-11-19T00:21:49;2.15;;;1.52;;
42384;SDS011;28042;43.986;22.860;2023-11-19T00:24:15;3.00;;;2.08;;
42384;SDS011;28042;43.986;22.860;2023-11-19T00:26:43;2.70;;;1.80;;
42384;SDS011;28042;43.986;22.860;2023-11-19T00:29:09;3.78;;;2.10;;
42384;SDS011;28042;43.986;22.860;2023-11-19T00:31:35;3.72;;;1.75;;
42384;SDS011;28042;43.986;22.860;2023-11-19T00:34:01;3.40;;;1.92;;
42384;SDS011;28042;43.986;22.860;2023-11-19T00:36:27;3.92;;;2.03;;
42384;SDS011;28042;43.986;22.860;2023-11-19T00:38:53;5.05;;;2.05;;
42384;SDS011;28042;43.986;22.860;2023-11-19T00:41:18;2.88;;;1.80;;
42384;SDS011;28042;43.986;22.860;2023-11-19T00:43:44;3.13;;;2.25;;
42384;SDS011;28042;43.986;22.860;2023-11-19T00:46:09;1.80;;;1.42;;
42384;SDS011;28042;43.986;22.860;2023-11-19T00:48:39;3.03;;;2.00;;
42384;SDS011;28042;43.986;22.860;2023-11-19T00:51:04;2.85;;;1.90;;
42384;SDS011;28042;43.986;22.860;2023-11-19T00:53:30;4.70;;;2.00;;
42384;SDS011;28042;43.986;22.860;2023-11-19T00:55:57;6.05;;;2.65;;
42384;SDS011;28042;43.986;22.860;2023-11-19T00:58:23;4.93;;;2.45;;
42384;SDS011;28042;43.986;22.860;2023-11-19T01:00:48;3.38;;;1.65;;
42384;SDS011;28042;43.986;22.860;2023-11-19T01:03:14;2.53;;;1.65;;
42384;SDS011;28042;43.986;22.860;2023-11-19T01:05:40;4.13;;;2.20;;
42384;SDS011;28042;43.986;22.860;2023-11-19T01:08:06;3.25;;;2.20;;
42384;SDS011;28042;43.986;22.860;2023-11-19T01:10:32;7.70;;;2.13;;
42384;SDS011;28042;43.986;22.860;2023-11-19T01:12:57;3.58;;;2.30;;
42384;SDS011;28042;43.986;22.860;2023-11-19T01:15:23;3.38;;;1.90;;
42384;SDS011;28042;43.986;22.860;2023-11-19T01:17:49;4.13;;;2.45;;
42384;SDS011;28042;43.986;22.860;2023-11-19T01:20:14;3.13;;;1.90;;
42384;SDS011;28042;43.986;22.860;2023-11-19T01:22:40;5.25;;;1.90;;
42384;SDS011;28042;43.986;22.860;2023-11-19T01:25:06;3.63;;;1.92;;
42384;SDS011;28042;43.986;22.860;2023-11-19T01:27:32;3.30;;;2.05;;
42384;SDS011;28042;43.986;22.860;2023-11-19T01:30:00;3.72;;;2.08;;
42384;SDS011;28042;43.986;22.860;2023-11-19T01:32:28;3.95;;;2.53;;
42384;SDS011;28042;43.986;22.860;2023-11-19T01:34:53;4.40;;;2.25;;
42384;SDS011;28042;43.986;22.860;2023-11-19T01:37:19;4.95;;;2.58;;
42384;SDS011;28042;43.986;22.860;2023-11-19T01:39:44;4.35;;;2.45;;
42384;SDS011;28042;43.986;22.860;2023-11-19T01:42:10;4.55;;;2.40;;
42384;SDS011;28042;43.986;22.860;2023-11-19T01:44:37;6.50;;;2.47;;
42384;SDS011;28042;43.986;22.860;2023-11-19T01:47:03;4.47;;;2.78;;
42384;SDS011;28042;43.986;22.860;2023-11-19T01:49:29;4.35;;;2.40;;
42384;SDS011;28042;43.986;22.860;2023-11-19T01:51:57;4.35;;;2.70;;
42384;SDS011;28042;43.986;22.860;2023-11-19T01:54:23;4.97;;;2.80;;
42384;SDS011;28042;43.986;22.860;2023-11-19T01:56:49;4.25;;;2.65;;
42384;SDS011;28042;43.986;22.860;2023-11-19T01:59:15;5.30;;;2.63;;
42384;SDS011;28042;43.986;22.860;2023-11-19T02:01:41;5.33;;;2.90;;
42384;SDS011;28042;43.986;22.860;2023-11-19T02:04:07;7.00;;;3.30;;
42384;SDS011;28042;43.986;22.860;2023-11-19T02:06:34;5.93;;;2.67;;
42384;SDS011;28042;43.986;22.860;2023-11-19T02:09:03;6.10;;;3.25;;
42384;SDS011;28042;43.986;22.860;2023-11-19T02:11:32;4.68;;;2.83;;
42384;SDS011;28042;43.986;22.860;2023-11-19T02:13:59;4.25;;;2.63;;
42384;SDS011;28042;43.986;22.860;2023-11-19T02:16:25;5.55;;;2.80;;
42384;SDS011;28042;43.986;22.860;2023-11-19T02:18:50;3.53;;;2.35;;
42384;SDS011;28042;43.986;22.860;2023-11-19T02:21:16;4.65;;;2.25;;
42384;SDS011;28042;43.986;22.860;2023-11-19T02:23:43;4.53;;;2.85;;
42384;SDS011;28042;43.986;22.860;2023-11-19T02:28:50;3.30;;;2.17;;
42384;SDS011;28042;43.986;22.860;2023-11-19T02:31:16;3.25;;;2.20;;
42384;SDS011;28042;43.986;22.860;2023-11-19T02:33:41;6.70;;;3.20;;
42384;SDS011;28042;43.986;22.860;2023-11-19T02:36:07;6.93;;;2.92;;
42384;SDS011;28042;43.986;22.860;2023-11-19T02:38:33;4.30;;;2.72;;
42384;SDS011;28042;43.986;22.860;2023-11-19T02:41:03;3.15;;;1.92;;
42384;SDS011;28042;43.986;22.860;2023-11-19T02:43:31;13.15;;;3.20;;
42384;SDS011;28042;43.986;22.860;2023-11-19T02:48:25;4.53;;;2.65;;
42384;SDS011;28042;43.986;22.860;2023-11-19T02:50:51;3.83;;;2.17;;
42384;SDS011;28042;43.986;22.860;2023-11-19T02:53:17;4.82;;;2.90;;
42384;SDS011;28042;43.986;22.860;2023-11-19T02:55:43;5.00;;;2.70;;
42384;SDS011;28042;43.986;22.860;2023-11-19T02:58:13;3.70;;;2.28;;
42384;SDS011;28042;43.986;22.860;2023-11-19T03:00:49;4.60;;;3.20;;
42384;SDS011;28042;43.986;22.860;2023-11-19T03:03:27;6.07;;;3.40;;
42384;SDS011;28042;43.986;22.860;2023-11-19T03:06:03;8.55;;;2.78;;
42384;SDS011;28042;43.986;22.860;2023-11-19T03:08:30;5.32;;;2.75;;
42384;SDS011;28042;43.986;22.860;2023-11-19T03:10:55;4.75;;;2.67;;
42384;SDS011;28042;43.986;22.860;2023-11-19T03:13:20;6.78;;;3.00;;
42384;SDS011;28042;43.986;22.860;2023-11-19T03:15:47;4.68;;;3.00;;
42384;SDS011;28042;43.986;22.860;2023-11-19T03:18:12;5.82;;;3.42;;
42384;SDS011;28042;43.986;22.860;2023-11-19T03:20:38;5.30;;;3.08;;
42384;SDS011;28042;43.986;22.860;2023-11-19T03:23:03;6.28;;;3.00;;
42384;SDS011;28042;43.986;22.860;2023-11-19T03:25:29;14.63;;;3.92;;
42384;SDS011;28042;43.986;22.860;2023-11-19T03:27:58;8.00;;;3.22;;
42384;SDS011;28042;43.986;22.860;2023-11-19T03:30:23;6.32;;;3.67;;
42384;SDS011;28042;43.986;22.860;2023-11-19T03:32:49;5.40;;;3.35;;
42384;SDS011;28042;43.986;22.860;2023-11-19T03:35:15;4.53;;;2.75;;
42384;SDS011;28042;43.986;22.860;2023-11-19T03:37:41;4.47;;;2.90;;
42384;SDS011;28042;43.986;22.860;2023-11-19T03:40:06;3.97;;;2.75;;
42384;SDS011;28042;43.986;22.860;2023-11-19T03:42:32;4.53;;;3.03;;
42384;SDS011;28042;43.986;22.860;2023-11-19T03:44:58;4.93;;;3.28;;
42384;SDS011;28042;43.986;22.860;2023-11-19T03:47:24;5.78;;;3.35;;
42384;SDS011;28042;43.986;22.860;2023-11-19T03:49:50;5.45;;;3.17;;
42384;SDS011;28042;43.986;22.860;2023-11-19T03:52:16;5.63;;;3.40;;
42384;SDS011;28042;43.986;22.860;2023-11-19T03:54:42;4.00;;;2.53;;
42384;SDS011;28042;43.986;22.860;2023-11-19T03:57:08;4.90;;;3.28;;
42384;SDS011;28042;43.986;22.860;2023-11-19T03:59:35;5.72;;;3.50;;
42384;SDS011;28042;43.986;22.860;2023-11-19T04:02:01;6.15;;;3.78;;
42384;SDS011;28042;43.986;22.860;2023-11-19T04:04:28;5.95;;;2.95;;
42384;SDS011;28042;43.986;22.860;2023-11-19T04:06:54;5.17;;;3.27;;
42384;SDS011;28042;43.986;22.860;2023-11-19T04:09:20;5.85;;;3.60;;
42384;SDS011;28042;43.986;22.860;2023-11-19T04:11:46;6.43;;;4.32;;
42384;SDS011;28042;43.986;22.860;2023-11-19T04:14:12;7.38;;;4.30;;
42384;SDS011;28042;43.986;22.860;2023-11-19T04:16:39;8.00;;;4.47;;
42384;SDS011;28042;43.986;22.860;2023-11-19T04:19:04;6.47;;;4.43;;
42384;SDS011;28042;43.986;22.860;2023-11-19T04:21:30;6.85;;;4.07;;
42384;SDS011;28042;43.986;22.860;2023-11-19T04:23:55;7.63;;;4.63;;
42384;SDS011;28042;43.986;22.860;2023-11-19T04:26:21;6.40;;;4.43;;
42384;SDS011;28042;43.986;22.860;2023-11-19T04:28:47;11.93;;;4.60;;
42384;SDS011;28042;43.986;22.860;2023-11-19T04:31:14;7.05;;;4.85;;
42384;SDS011;28042;43.986;22.860;2023-11-19T04:33:42;7.72;;;5.30;;
42384;SDS011;28042;43.986;22.860;2023-11-19T04:36:11;11.55;;;5.95;;
42384;SDS011;28042;43.986;22.860;2023-11-19T04:38:36;10.98;;;6.10;;
42384;SDS011;28042;43.986;22.860;2023-11-19T04:41:04;11.07;;;6.18;;
42384;SDS011;28042;43.986;22.860;2023-11-19T04:43:30;11.98;;;7.05;;
42384;SDS011;28042;43.986;22.860;2023-11-19T04:45:56;8.68;;;5.40;;
42384;SDS011;28042;43.986;22.860;2023-11-19T04:48:22;10.02;;;6.63;;
42384;SDS011;28042;43.986;22.860;2023-11-19T04:50:48;8.68;;;5.97;;
42384;SDS011;28042;43.986;22.860;2023-11-19T04:53:16;10.32;;;7.32;;
42384;SDS011;28042;43.986;22.860;2023-11-19T04:55:42;7.78;;;5.30;;
42384;SDS011;28042;43.986;22.860;2023-11-19T04:58:07;9.40;;;6.43;;
42384;SDS011;28042;43.986;22.860;2023-11-19T05:00:33;10.27;;;6.13;;
42384;SDS011;28042;43.986;22.860;2023-11-19T05:02:58;12.05;;;6.53;;
42384;SDS011;28042;43.986;22.860;2023-11-19T05:05:24;10.50;;;6.55;;
42384;SDS011;28042;43.986;22.860;2023-11-19T05:07:49;10.50;;;6.72;;
42384;SDS011;28042;43.986;22.860;2023-11-19T05:10:15;9.63;;;6.30;;
42384;SDS011;28042;43.986;22.860;2023-11-19T05:12:40;9.00;;;6.70;;
42384;SDS011;28042;43.986;22.860;2023-11-19T05:15:06;9.85;;;7.13;;
42384;SDS011;28042;43.986;22.860;2023-11-19T05:17:32;12.98;;;6.65;;
42384;SDS011;28042;43.986;22.860;2023-11-19T05:19:57;9.65;;;6.75;;
42384;SDS011;28042;43.986;22.860;2023-11-19T05:22:23;12.35;;;6.63;;
42384;SDS011;28042;43.986;22.860;2023-11-19T05:24:48;7.93;;;6.00;;
42384;SDS011;28042;43.986;22.860;2023-11-19T05:27:14;8.68;;;5.57;;
42384;SDS011;28042;43.986;22.860;2023-11-19T05:29:40;12.55;;;7.50;;
42384;SDS011;28042;43.986;22.860;2023-11-19T05:32:06;8.90;;;5.97;;
42384;SDS011;28042;43.986;22.860;2023-11-19T05:34:32;12.35;;;7.35;;
42384;SDS011;28042;43.986;22.860;2023-11-19T05:36:57;10.45;;;6.97;;
42384;SDS011;28042;43.986;22.860;2023-11-19T05:39:23;9.35;;;7.15;;
42384;SDS011;28042;43.986;22.860;2023-11-19T05:41:49;20.33;;;7.70;;
42384;SDS011;28042;43.986;22.860;2023-11-19T05:44:15;12.82;;;8.15;;
42384;SDS011;28042;43.986;22.860;2023-11-19T05:46:41;11.15;;;6.90;;
42384;SDS011;28042;43.986;22.860;2023-11-19T05:49:08;10.63;;;5.97;;
42384;SDS011;28042;43.986;22.860;2023-11-19T05:51:37;12.75;;;7.10;;
42384;SDS011;28042;43.986;22.860;2023-11-19T05:54:04;14.48;;;6.93;;
42384;SDS011;28042;43.986;22.860;2023-11-19T05:56:32;12.43;;;7.30;;
42384;SDS011;28042;43.986;22.860;2023-11-19T05:58:58;12.07;;;6.22;;
42384;SDS011;28042;43.986;22.860;2023-11-19T06:01:26;8.32;;;5.80;;
42384;SDS011;28042;43.986;22.860;2023-11-19T06:03:51;8.75;;;6.20;;
42384;SDS011;28042;43.986;22.860;2023-11-19T06:06:17;9.13;;;6.45;;
42384;SDS011;28042;43.986;22.860;2023-11-19T06:08:43;11.73;;;5.80;;
42384;SDS011;28042;43.986;22.860;2023-11-19T06:11:09;7.88;;;5.82;;
42384;SDS011;28042;43.986;22.860;2023-11-19T06:13:39;10.85;;;6.90;;
42384;SDS011;28042;43.986;22.860;2023-11-19T06:16:05;7.57;;;5.40;;
42384;SDS011;28042;43.986;22.860;2023-11-19T06:18:31;8.73;;;5.85;;
42384;SDS011;28042;43.986;22.860;2023-11-19T06:20:56;9.02;;;5.88;;
42384;SDS011;28042;43.986;22.860;2023-11-19T06:23:22;7.88;;;4.78;;
42384;SDS011;28042;43.986;22.860;2023-11-19T06:25:47;8.27;;;5.55;;
42384;SDS011;28042;43.986;22.860;2023-11-19T06:28:12;6.97;;;4.85;;
42384;SDS011;28042;43.986;22.860;2023-11-19T06:30:38;7.82;;;5.00;;
42384;SDS011;28042;43.986;22.860;2023-11-19T06:33:04;7.70;;;5.40;;
42384;SDS011;28042;43.986;22.860;2023-11-19T06:35:29;8.07;;;4.40;;
42384;SDS011;28042;43.986;22.860;2023-11-19T06:38:01;8.05;;;5.28;;
42384;SDS011;28042;43.986;22.860;2023-11-19T06:40:30;7.25;;;4.47;;
42384;SDS011;28042;43.986;22.860;2023-11-19T06:42:56;5.70;;;3.50;;
42384;SDS011;28042;43.986;22.860;2023-11-19T06:45:22;7.28;;;4.95;;
42384;SDS011;28042;43.986;22.860;2023-11-19T06:47:47;5.88;;;3.38;;
42384;SDS011;28042;43.986;22.860;2023-11-19T06:50:13;9.15;;;5.60;;
42384;SDS011;28042;43.986;22.860;2023-11-19T06:52:40;11.00;;;5.30;;
42384;SDS011;28042;43.986;22.860;2023-11-19T06:55:05;11.32;;;5.10;;
42384;SDS011;28042;43.986;22.860;2023-11-19T06:57:31;7.13;;;4.22;;
42384;SDS011;28042;43.986;22.860;2023-11-19T06:59:57;6.50;;;4.93;;
42384;SDS011;28042;43.986;22.860;2023-11-19T07:02:23;10.38;;;5.65;;
42384;SDS011;28042;43.986;22.860;2023-11-19T07:04:49;8.60;;;4.90;;
42384;SDS011;28042;43.986;22.860;2023-11-19T07:07:15;10.07;;;5.22;;
42384;SDS011;28042;43.986;22.860;2023-11-19T07:09:41;7.93;;;5.05;;
42384;SDS011;28042;43.986;22.860;2023-11-19T07:12:06;8.32;;;4.47;;
42384;SDS011;28042;43.986;22.860;2023-11-19T07:14:32;7.72;;;5.50;;
42384;SDS011;28042;43.986;22.860;2023-11-19T07:16:57;9.05;;;4.88;;
42384;SDS011;28042;43.986;22.860;2023-11-19T07:19:22;6.30;;;4.60;;
42384;SDS011;28042;43.986;22.860;2023-11-19T07:21:48;13.63;;;5.80;;
42384;SDS011;28042;43.986;22.860;2023-11-19T07:24:14;7.15;;;4.60;;
42384;SDS011;28042;43.986;22.860;2023-11-19T07:26:43;7.78;;;5.53;;
42384;SDS011;28042;43.986;22.860;2023-11-19T07:29:09;10.70;;;5.28;;
42384;SDS011;28042;43.986;22.860;2023-11-19T07:31:35;8.13;;;5.30;;
42384;SDS011;28042;43.986;22.860;2023-11-19T07:34:01;9.88;;;5.35;;
42384;SDS011;28042;43.986;22.860;2023-11-19T07:36:26;6.03;;;3.70;;
42384;SDS011;28042;43.986;22.860;2023-11-19T07:38:52;8.05;;;5.25;;
42384;SDS011;28042;43.986;22.860;2023-11-19T07:41:18;9.18;;;4.53;;
42384;SDS011;28042;43.986;22.860;2023-11-19T07:43:45;7.45;;;4.65;;
42384;SDS011;28042;43.986;22.860;2023-11-19T07:46:11;8.82;;;5.25;;
42384;SDS011;28042;43.986;22.860;2023-11-19T07:48:40;9.88;;;5.95;;
42384;SDS011;28042;43.986;22.860;2023-11-19T07:51:07;9.05;;;5.80;;
42384;SDS011;28042;43.986;22.860;2023-11-19T07:53:33;12.60;;;6.10;;
42384;SDS011;28042;43.986;22.860;2023-11-19T07:55:59;9.05;;;5.70;;
42384;SDS011;28042;43.986;22.860;2023-11-19T07:58:25;10.32;;;6.82;;
42384;SDS011;28042;43.986;22.860;2023-11-19T08:00:50;9.05;;;6.55;;
42384;SDS011;28042;43.986;22.860;2023-11-19T08:03:17;7.90;;;5.65;;
42384;SDS011;28042;43.986;22.860;2023-11-19T08:05:44;5.78;;;4.07;;
42384;SDS011;28042;43.986;22.860;2023-11-19T08:08:10;7.53;;;4.85;;
42384;SDS011;28042;43.986;22.860;2023-11-19T08:10:35;11.02;;;5.90;;
42384;SDS011;28042;43.986;22.860;2023-11-19T08:13:01;8.52;;;5.68;;
42384;SDS011;28042;43.986;22.860;2023-11-19T08:15:26;6.70;;;4.60;;
42384;SDS011;28042;43.986;22.860;2023-11-19T08:17:52;7.35;;;5.75;;
42384;SDS011;28042;43.986;22.860;2023-11-19T08:20:18;7.93;;;5.68;;
42384;SDS011;28042;43.986;22.860;2023-11-19T08:22:43;8.50;;;5.03;;
42384;SDS011;28042;43.986;22.860;2023-11-19T08:25:09;8.75;;;5.30;;
42384;SDS011;28042;43.986;22.860;2023-11-19T08:27:34;8.18;;;5.07;;
42384;SDS011;28042;43.986;22.860;2023-11-19T08:30:00;10.75;;;5.65;;
42384;SDS011;28042;43.986;22.860;2023-11-19T08:32:26;14.55;;;6.32;;
42384;SDS011;28042;43.986;22.860;2023-11-19T08:34:52;8.27;;;5.32;;
42384;SDS011;28042;43.986;22.860;2023-11-19T08:37:18;11.77;;;6.15;;
42384;SDS011;28042;43.986;22.860;2023-11-19T08:42:15;8.60;;;5.53;;
42384;SDS011;28042;43.986;22.860;2023-11-19T08:44:41;7.50;;;4.97;;
42384;SDS011;28042;43.986;22.860;2023-11-19T08:47:11;9.02;;;5.13;;
42384;SDS011;28042;43.986;22.860;2023-11-19T08:49:37;9.70;;;5.65;;
42384;SDS011;28042;43.986;22.860;2023-11-19T08:52:04;10.70;;;4.85;;
42384;SDS011;28042;43.986;22.860;2023-11-19T08:54:29;9.48;;;6.63;;
42384;SDS011;28042;43.986;22.860;2023-11-19T08:56:55;13.95;;;5.20;;
42384;SDS011;28042;43.986;22.860;2023-11-19T08:59:20;10.07;;;4.95;;
42384;SDS011;28042;43.986;22.860;2023-11-19T09:01:46;6.97;;;4.85;;
42384;SDS011;28042;43.986;22.860;2023-11-19T09:04:11;7.60;;;5.20;;
42384;SDS011;28042;43.986;22.860;2023-11-19T09:06:37;10.32;;;4.75;;
42384;SDS011;28042;43.986;22.860;2023-11-19T09:09:02;6.80;;;4.25;;
42384;SDS011;28042;43.986;22.860;2023-11-19T09:11:30;8.13;;;5.97;;
42384;SDS011;28042;43.986;22.860;2023-11-19T09:13:56;8.95;;;4.05;;
42384;SDS011;28042;43.986;22.860;2023-11-19T09:16:21;8.77;;;6.05;;
42384;SDS011;28042;43.986;22.860;2023-11-19T09:18:46;7.03;;;4.90;;
42384;SDS011;28042;43.986;22.860;2023-11-19T09:21:12;7.88;;;5.30;;
42384;SDS011;28042;43.986;22.860;2023-11-19T09:23:37;8.90;;;5.63;;
42384;SDS011;28042;43.986;22.860;2023-11-19T09:26:10;5.65;;;4.13;;
42384;SDS011;28042;43.986;22.860;2023-11-19T09:28:36;10.35;;;6.07;;
42384;SDS011;28042;43.986;22.860;2023-11-19T09:31:01;10.07;;;4.85;;
42384;SDS011;28042;43.986;22.860;2023-11-19T09:33:30;8.18;;;4.97;;
42384;SDS011;28042;43.986;22.860;2023-11-19T09:35:55;11.55;;;5.55;;
42384;SDS011;28042;43.986;22.860;2023-11-19T09:38:21;7.60;;;3.88;;
42384;SDS011;28042;43.986;22.860;2023-11-19T09:40:47;8.77;;;4.75;;
42384;SDS011;28042;43.986;22.860;2023-11-19T09:43:13;8.07;;;4.30;;
42384;SDS011;28042;43.986;22.860;2023-11-19T09:45:50;9.63;;;5.57;;
42384;SDS011;28042;43.986;22.860;2023-11-19T09:48:19;5.85;;;3.33;;
42384;SDS011;28042;43.986;22.860;2023-11-19T09:50:48;7.25;;;4.68;;
42384;SDS011;28042;43.986;22.860;2023-11-19T09:53:14;6.72;;;4.55;;
42384;SDS011;28042;43.986;22.860;2023-11-19T09:55:43;7.53;;;3.80;;
42384;SDS011;28042;43.986;22.860;2023-11-19T09:58:10;6.40;;;4.15;;
42384;SDS011;28042;43.986;22.860;2023-11-19T10:00:39;8.68;;;3.63;;
42384;SDS011;28042;43.986;22.860;2023-11-19T10:03:05;11.45;;;5.30;;
42384;SDS011;28042;43.986;22.860;2023-11-19T10:05:34;6.35;;;4.38;;
42384;SDS011;28042;43.986;22.860;2023-11-19T10:07:59;13.07;;;4.18;;
42384;SDS011;28042;43.986;22.860;2023-11-19T10:10:28;9.32;;;4.13;;
42384;SDS011;28042;43.986;22.860;2023-11-19T10:12:53;6.40;;;3.40;;
42384;SDS011;28042;43.986;22.860;2023-11-19T10:15:22;5.07;;;3.50;;
42384;SDS011;28042;43.986;22.860;2023-11-19T10:17:49;6.82;;;3.72;;
42384;SDS011;28042;43.986;22.860;2023-11-19T10:20:15;10.13;;;5.30;;
42384;SDS011;28042;43.986;22.860;2023-11-19T10:22:41;8.82;;;4.22;;
42384;SDS011;28042;43.986;22.860;2023-11-19T10:25:22;11.20;;;4.90;;
42384;SDS011;28042;43.986;22.860;2023-11-19T10:27:48;7.40;;;4.65;;
42384;SDS011;28042;43.986;22.860;2023-11-19T10:30:19;6.20;;;4.25;;
42384;SDS011;28042;43.986;22.860;2023-11-19T10:32:46;6.00;;;3.83;;
42384;SDS011;28042;43.986;22.860;2023-11-19T10:35:55;6.90;;;3.42;;
42384;SDS011;28042;43.986;22.860;2023-11-19T10:38:22;7.25;;;4.50;;
42384;SDS011;28042;43.986;22.860;2023-11-19T10:40:49;6.15;;;3.53;;
42384;SDS011;28042;43.986;22.860;2023-11-19T10:43:18;6.57;;;4.70;;
42384;SDS011;28042;43.986;22.860;2023-11-19T10:45:44;10.95;;;4.57;;
42384;SDS011;28042;43.986;22.860;2023-11-19T10:48:10;5.80;;;3.50;;
42384;SDS011;28042;43.986;22.860;2023-11-19T10:50:38;3.95;;;2.33;;
42384;SDS011;28042;43.986;22.860;2023-11-19T10:53:05;6.90;;;4.32;;
42384;SDS011;28042;43.986;22.860;2023-11-19T10:55:35;6.13;;;4.35;;
42384;SDS011;28042;43.986;22.860;2023-11-19T10:58:04;4.82;;;3.40;;
42384;SDS011;28042;43.986;22.860;2023-11-19T11:03:27;7.75;;;4.38;;
42384;SDS011;28042;43.986;22.860;2023-11-19T11:05:56;5.53;;;3.53;;
42384;SDS011;28042;43.986;22.860;2023-11-19T11:08:23;7.00;;;4.35;;
42384;SDS011;28042;43.986;22.860;2023-11-19T11:10:55;5.35;;;3.60;;
42384;SDS011;28042;43.986;22.860;2023-11-19T11:13:23;9.43;;;4.40;;
42384;SDS011;28042;43.986;22.860;2023-11-19T11:15:50;4.95;;;3.03;;
42384;SDS011;28042;43.986;22.860;2023-11-19T11:18:16;9.40;;;4.35;;
42384;SDS011;28042;43.986;22.860;2023-11-19T11:20:46;9.05;;;3.92;;
42384;SDS011;28042;43.986;22.860;2023-11-19T11:28:58;4.97;;;2.88;;
42384;SDS011;28042;43.986;22.860;2023-11-19T11:39:43;4.82;;;2.90;;
42384;SDS011;28042;43.986;22.860;2023-11-19T11:50:08;3.58;;;2.00;;
42384;SDS011;28042;43.986;22.860;2023-11-19T11:55:25;3.47;;;2.38;;
42384;SDS011;28042;43.986;22.860;2023-11-19T11:57:50;4.95;;;2.40;;
42384;SDS011;28042;43.986;22.860;2023-11-19T12:03:08;2.88;;;2.10;;
42384;SDS011;28042;43.986;22.860;2023-11-19T12:05:43;2.60;;;2.00;;
42384;SDS011;28042;43.986;22.860;2023-11-19T12:08:10;7.30;;;3.25;;
42384;SDS011;28042;43.986;22.860;2023-11-19T12:10:47;4.40;;;3.10;;
42384;SDS011;28042;43.986;22.860;2023-11-19T12:13:14;5.05;;;2.45;;
42384;SDS011;28042;43.986;22.860;2023-11-19T12:18:24;7.35;;;2.90;;
42384;SDS011;28042;43.986;22.860;2023-11-19T12:20:52;4.63;;;2.83;;
42384;SDS011;28042;43.986;22.860;2023-11-19T12:23:18;9.23;;;2.60;;
42384;SDS011;28042;43.986;22.860;2023-11-19T12:25:43;4.82;;;2.80;;
42384;SDS011;28042;43.986;22.860;2023-11-19T12:28:14;7.57;;;2.92;;
42384;SDS011;28042;43.986;22.860;2023-11-19T12:30:42;3.53;;;2.13;;
42384;SDS011;28042;43.986;22.860;2023-11-19T12:33:11;4.15;;;2.25;;
42384;SDS011;28042;43.986;22.860;2023-11-19T12:35:38;6.45;;;3.05;;
42384;SDS011;28042;43.986;22.860;2023-11-19T12:38:04;9.90;;;3.45;;
42384;SDS011;28042;43.986;22.860;2023-11-19T12:40:30;5.57;;;3.42;;
42384;SDS011;28042;43.986;22.860;2023-11-19T12:42:56;5.18;;;3.28;;
42384;SDS011;28042;43.986;22.860;2023-11-19T12:45:22;5.10;;;3.28;;
42384;SDS011;28042;43.986;22.860;2023-11-19T12:48:04;5.00;;;3.03;;
42384;SDS011;28042;43.986;22.860;2023-11-19T12:50:30;5.78;;;3.58;;
42384;SDS011;28042;43.986;22.860;2023-11-19T12:53:27;5.68;;;3.63;;
42384;SDS011;28042;43.986;22.860;2023-11-19T12:55:54;4.00;;;2.55;;
42384;SDS011;28042;43.986;22.860;2023-11-19T12:58:33;5.10;;;2.70;;
42384;SDS011;28042;43.986;22.860;2023-11-19T13:01:09;4.25;;;2.72;;
42384;SDS011;28042;43.986;22.860;2023-11-19T13:03:38;5.70;;;3.22;;
42384;SDS011;28042;43.986;22.860;2023-11-19T13:06:10;5.80;;;3.78;;
42384;SDS011;28042;43.986;22.860;2023-11-19T13:08:41;6.35;;;3.58;;
42384;SDS011;28042;43.986;22.860;2023-11-19T13:11:11;10.63;;;4.32;;
42384;SDS011;28042;43.986;22.860;2023-11-19T13:13:53;7.70;;;4.07;;
42384;SDS011;28042;43.986;22.860;2023-11-19T13:16:18;7.97;;;4.25;;
42384;SDS011;28042;43.986;22.860;2023-11-19T13:18:44;6.70;;;4.15;;
42384;SDS011;28042;43.986;22.860;2023-11-19T13:21:10;11.77;;;3.97;;
42384;SDS011;28042;43.986;22.860;2023-11-19T13:23:35;7.55;;;3.40;;
42384;SDS011;28042;43.986;22.860;2023-11-19T13:26:01;5.65;;;3.80;;
42384;SDS011;28042;43.986;22.860;2023-11-19T13:28:26;6.57;;;4.10;;
42384;SDS011;28042;43.986;22.860;2023-11-19T13:30:52;7.28;;;4.30;;
42384;SDS011;28042;43.986;22.860;2023-11-19T13:33:18;6.05;;;3.65;;
42384;SDS011;28042;43.986;22.860;2023-11-19T13:35:44;5.10;;;3.20;;
42384;SDS011;28042;43.986;22.860;2023-11-19T13:38:09;5.68;;;3.75;;
42384;SDS011;28042;43.986;22.860;2023-11-19T13:40:35;5.80;;;3.33;;
42384;SDS011;28042;43.986;22.860;2023-11-19T13:43:00;6.22;;;3.78;;
42384;SDS011;28042;43.986;22.860;2023-11-19T13:45:26;7.10;;;3.92;;
42384;SDS011;28042;43.986;22.860;2023-11-19T13:47:52;6.55;;;4.43;;
42384;SDS011;28042;43.986;22.860;2023-11-19T13:50:18;6.90;;;4.10;;
42384;SDS011;28042;43.986;22.860;2023-11-19T13:52:44;10.85;;;4.55;;
42384;SDS011;28042;43.986;22.860;2023-11-19T13:57:37;6.03;;;4.10;;
42384;SDS011;28042;43.986;22.860;2023-11-19T14:00:09;7.53;;;3.63;;
42384;SDS011;28042;43.986;22.860;2023-11-19T14:02:44;7.47;;;4.00;;
42384;SDS011;28042;43.986;22.860;2023-11-19T14:05:11;5.47;;;3.38;;
42384;SDS011;28042;43.986;22.860;2023-11-19T14:07:37;7.05;;;2.72;;
42384;SDS011;28042;43.986;22.860;2023-11-19T14:10:06;7.85;;;4.07;;
42384;SDS011;28042;43.986;22.860;2023-11-19T14:12:34;4.90;;;3.22;;
42384;SDS011;28042;43.986;22.860;2023-11-19T14:17:27;7.13;;;2.97;;
42384;SDS011;28042;43.986;22.860;2023-11-19T14:19:54;7.32;;;3.53;;
42384;SDS011;28042;43.986;22.860;2023-11-19T14:22:19;4.28;;;2.83;;
42384;SDS011;28042;43.986;22.860;2023-11-19T14:24:45;5.22;;;3.55;;
42384;SDS011;28042;43.986;22.860;2023-11-19T14:27:10;4.60;;;3.10;;
42384;SDS011;28042;43.986;22.860;2023-11-19T14:29:36;6.70;;;3.15;;
42384;SDS011;28042;43.986;22.860;2023-11-19T14:32:02;4.93;;;3.38;;
42384;SDS011;28042;43.986;22.860;2023-11-19T14:34:31;7.35;;;3.38;;
42384;SDS011;28042;43.986;22.860;2023-11-19T14:36:57;5.32;;;3.25;;
42384;SDS011;28042;43.986;22.860;2023-11-19T14:39:23;6.72;;;3.80;;
42384;SDS011;28042;43.986;22.860;2023-11-19T14:41:48;7.88;;;3.80;;
42384;SDS011;28042;43.986;22.860;2023-11-19T14:44:15;6.53;;;3.63;;
42384;SDS011;28042;43.986;22.860;2023-11-19T14:46:41;10.07;;;4.65;;
42384;SDS011;28042;43.986;22.860;2023-11-19T14:49:06;6.28;;;3.88;;
42384;SDS011;28042;43.986;22.860;2023-11-19T14:51:38;6.20;;;3.63;;
42384;SDS011;28042;43.986;22.860;2023-11-19T14:54:04;3.50;;;2.42;;
42384;SDS011;28042;43.986;22.860;2023-11-19T14:56:29;8.77;;;4.28;;
42384;SDS011;28042;43.986;22.860;2023-11-19T14:58:55;5.15;;;2.90;;
42384;SDS011;28042;43.986;22.860;2023-11-19T15:01:20;7.53;;;4.13;;
42384;SDS011;28042;43.986;22.860;2023-11-19T15:03:46;8.60;;;3.83;;
42384;SDS011;28042;43.986;22.860;2023-11-19T15:06:12;6.57;;;4.07;;
42384;SDS011;28042;43.986;22.860;2023-11-19T15:08:37;7.15;;;3.88;;
42384;SDS011;28042;43.986;22.860;2023-11-19T15:11:03;6.57;;;4.10;;
42384;SDS011;28042;43.986;22.860;2023-11-19T15:13:30;7.53;;;3.63;;
42384;SDS011;28042;43.986;22.860;2023-11-19T15:15:57;6.50;;;3.75;;
42384;SDS011;28042;43.986;22.860;2023-11-19T15:18:22;10.25;;;4.93;;